Terminal Aerodrome Forecast
Issued by NWS

Home | Current Version | Previous Version | Text Only | Print | Product List | Glossary On
Versions: 1 2 3 4 5 6 7 8 9 10 11 12 13 14 15 16 17 18 19 20 21 22 23 24 25 26 27 28 29 30 31 32
000
FTPQ31 PGUM 291900 AAB
TAFPQ
TAF AMD
PGSN 291948Z 2920/3018 07018G32KT 6SM SHRA SCT012 BKN020 OVC080
     FM292200 10025G40KT 3SM +SHRA SCT007 OVC020
     FM300600 13022G35KT 5SM SHRA SCT012 BKN020 OVC080
     FM301600 16015G28KT 6SM SHRA SCT012 BKN030 BKN080=

USA.gov is the U.S. government's official web portal to all federal, state and local government web resources and services.